Time;durP1;ratioP1;P1;durP2;ratioP2;P2;SDS_P1;SDS_P2;PMS_P1;PMS_P2;Temp;Humidity;BMP_temperature;BMP_pressure;BME280_temperature;BME280_humidity;BME280_pressure;Samples;Min_cycle;Max_cycle;Signal;HPM_P1;HPM_P2
2023/12/14 00:00:23;;;;;;;6.03;2.10;;;;;;;8.69;100.00;100549.75;5096051;28;20075;-61
2023/12/14 00:02:50;;;;;;;8.52;1.88;;;;;;;8.56;100.00;100539.56;5081709;28;20055;-61
2023/12/14 00:05:18;;;;;;;7.38;1.70;;;;;;;8.53;100.00;100556.66;5093626;28;20082;-63
2023/12/14 00:07:45;;;;;;;5.28;1.83;;;;;;;8.60;100.00;100550.75;5095081;28;20386;-61
2023/12/14 00:10:12;;;;;;;6.55;1.80;;;;;;;8.56;100.00;100545.06;5097569;27;20055;-62
2023/12/14 00:12:40;;;;;;;5.43;1.88;;;;;;;8.59;100.00;100547.22;5122240;27;20048;-61
2023/12/14 00:15:07;;;;;;;6.20;2.05;;;;;;;8.63;100.00;100567.44;5095651;28;20059;-61
2023/12/14 00:17:35;;;;;;;6.47;1.88;;;;;;;8.61;100.00;100569.66;5115037;28;20043;-61
2023/12/14 00:20:03;;;;;;;6.35;1.80;;;;;;;8.53;100.00;100594.25;5097000;28;20044;-61
2023/12/14 00:22:30;;;;;;;4.47;1.42;;;;;;;8.43;100.00;100562.34;5079435;28;20066;-60
2023/12/14 00:24:58;;;;;;;7.40;2.20;;;;;;;8.58;100.00;100574.94;5108549;28;20047;-62
2023/12/14 00:27:25;;;;;;;7.68;1.98;;;;;;;8.58;100.00;100588.66;5108975;28;20062;-62
2023/12/14 00:29:52;;;;;;;4.75;1.80;;;;;;;8.73;100.00;100583.72;5114757;28;20052;-61
2023/12/14 00:32:19;;;;;;;6.85;1.80;;;;;;;8.60;100.00;100591.94;5096247;28;20043;-67
2023/12/14 00:35:13;;;;;;;6.35;1.70;;;;;;;8.81;100.00;100610.47;5085086;28;20052;-64
2023/12/14 00:37:52;;;;;;;10.40;2.33;;;;;;;8.54;100.00;100602.19;5058216;28;20048;-61
2023/12/14 00:40:19;;;;;;;9.30;2.55;;;;;;;8.41;100.00;100622.22;5093945;28;20039;-61
2023/12/14 00:42:54;;;;;;;8.88;1.80;;;;;;;8.47;100.00;100611.97;5101123;28;20059;-61
2023/12/14 00:45:21;;;;;;;8.05;1.85;;;;;;;8.59;100.00;100621.34;5109496;28;20720;-60
2023/12/14 00:47:48;;;;;;;11.25;1.77;;;;;;;8.34;100.00;100627.25;5088914;28;20738;-60
2023/12/14 00:50:15;;;;;;;6.18;1.63;;;;;;;8.26;100.00;100636.19;5095377;28;20395;-61
2023/12/14 00:52:43;;;;;;;7.60;1.73;;;;;;;8.27;100.00;100637.81;5078616;28;20052;-62
2023/12/14 00:55:10;;;;;;;6.22;1.55;;;;;;;8.32;100.00;100643.22;5095633;28;20458;-61
2023/12/14 00:57:37;;;;;;;4.38;1.67;;;;;;;8.25;100.00;100644.69;5078384;28;20050;-61
2023/12/14 01:00:05;;;;;;;6.57;1.40;;;;;;;8.31;100.00;100652.56;5097854;28;20048;-61
2023/12/14 01:02:33;;;;;;;13.93;2.05;;;;;;;8.39;100.00;100662.84;5093679;28;20051;-60
2023/12/14 01:05:00;;;;;;;6.63;1.50;;;;;;;8.22;100.00;100648.03;5088718;28;20058;-60
2023/12/14 01:07:29;;;;;;;7.18;1.63;;;;;;;8.14;100.00;100654.19;5085718;28;20051;-62
2023/12/14 01:09:57;;;;;;;5.85;1.40;;;;;;;8.26;100.00;100666.38;5094347;28;20059;-59
2023/12/14 01:12:24;;;;;;;6.97;1.52;;;;;;;8.30;100.00;100659.16;5103224;28;20059;-59
2023/12/14 01:14:51;;;;;;;9.73;1.98;;;;;;;8.37;100.00;100675.25;5095428;28;20047;-60
2023/12/14 01:17:18;;;;;;;10.30;1.70;;;;;;;8.16;100.00;100669.22;5094939;28;20048;-60
2023/12/14 01:19:46;;;;;;;6.30;1.58;;;;;;;8.17;100.00;100675.53;5094411;28;20051;-60
2023/12/14 01:22:13;;;;;;;10.52;1.67;;;;;;;8.17;100.00;100679.13;5094069;28;20495;-59
2023/12/14 01:24:42;;;;;;;12.00;1.80;;;;;;;8.18;100.00;100696.38;5093240;28;20055;-61
2023/12/14 01:27:10;;;;;;;8.18;2.13;;;;;;;8.08;100.00;100707.50;5107318;28;20059;-61
2023/12/14 01:29:38;;;;;;;6.07;1.95;;;;;;;8.11;100.00;100694.00;5075355;28;20051;-58
2023/12/14 01:32:06;;;;;;;5.72;1.60;;;;;;;8.03;100.00;100697.44;5093434;28;20055;-62
2023/12/14 01:34:33;;;;;;;13.27;1.70;;;;;;;7.86;100.00;100697.94;5111225;28;20047;-61
2023/12/14 01:37:00;;;;;;;6.53;1.42;;;;;;;8.01;100.00;100716.09;5094857;28;20490;-59
2023/12/14 01:39:28;;;;;;;8.88;1.92;;;;;;;8.05;100.00;100716.34;5093226;28;20050;-62
2023/12/14 01:41:55;;;;;;;7.25;1.70;;;;;;;8.13;100.00;100724.72;5074289;28;20131;-59
2023/12/14 01:44:22;;;;;;;7.45;1.33;;;;;;;7.94;100.00;100726.63;5095061;28;20043;-60
2023/12/14 01:46:49;;;;;;;5.75;1.70;;;;;;;7.76;100.00;100721.94;5113174;28;20058;-59
2023/12/14 01:49:16;;;;;;;9.32;1.48;;;;;;;7.91;100.00;100727.22;5112802;28;20067;-60
2023/12/14 01:51:44;;;;;;;6.85;1.48;;;;;;;7.85;100.00;100739.38;5089943;28;20532;-61
2023/12/14 01:54:11;;;;;;;6.88;1.63;;;;;;;8.02;100.00;100736.94;5058544;28;20059;-64
2023/12/14 01:56:38;;;;;;;5.00;1.25;;;;;;;8.05;100.00;100755.56;5103123;28;20086;-62
2023/12/14 01:59:06;;;;;;;7.18;1.23;;;;;;;7.95;100.00;100763.91;5113230;28;20039;-60
2023/12/14 02:01:40;;;;;;;8.63;1.60;;;;;;;7.82;100.00;100770.13;5112943;28;20157;-59
2023/12/14 02:04:08;;;;;;;6.13;1.42;;;;;;;7.86;100.00;100771.97;5105253;28;20059;-62
2023/12/14 02:06:35;;;;;;;4.93;1.25;;;;;;;7.90;100.00;100775.78;5058320;28;20524;-61
2023/12/14 02:09:02;;;;;;;5.18;1.13;;;;;;;7.86;100.00;100776.66;5088959;28;20511;-62
2023/12/14 02:11:30;;;;;;;3.92;1.23;;;;;;;7.58;100.00;100803.03;5105001;28;20044;-61
2023/12/14 02:13:57;;;;;;;3.50;1.10;;;;;;;7.74;100.00;100787.25;5087512;28;20063;-62
2023/12/14 02:16:24;;;;;;;5.47;1.25;;;;;;;7.72;100.00;100806.69;5093108;28;20067;-60
2023/12/14 02:18:52;;;;;;;4.07;1.23;;;;;;;7.68;100.00;100802.09;5112597;28;20047;-60
2023/12/14 02:21:19;;;;;;;4.43;1.15;;;;;;;7.66;100.00;100804.31;5112810;28;20674;-57
2023/12/14 02:23:46;;;;;;;4.82;1.15;;;;;;;7.66;100.00;100807.88;5109654;28;20538;-60
2023/12/14 02:26:14;;;;;;;3.60;1.30;;;;;;;7.70;100.00;100808.94;5104113;28;20054;-61
2023/12/14 02:28:41;;;;;;;4.70;1.15;;;;;;;7.77;100.00;100809.41;5112498;28;20040;-59
2023/12/14 02:31:09;;;;;;;7.00;1.63;;;;;;;7.78;100.00;100822.00;5112400;28;20047;-60
2023/12/14 02:33:36;;;;;;;3.08;1.20;;;;;;;7.90;100.00;100810.59;5111328;28;20502;-60
2023/12/14 02:36:04;;;;;;;5.50;1.00;;;;;;;7.82;100.00;100820.31;5111828;28;20056;-60
2023/12/14 02:38:38;;;;;;;4.38;1.30;;;;;;;7.73;100.00;100823.97;5106231;28;20395;-61
2023/12/14 02:41:10;;;;;;;5.88;1.55;;;;;;;7.87;100.00;100825.72;5076435;28;20052;-62
2023/12/14 02:43:43;;;;;;;4.18;1.17;;;;;;;7.82;100.00;100824.97;5073972;28;20466;-59
2023/12/14 02:46:11;;;;;;;6.45;1.67;;;;;;;7.80;100.00;100835.41;5092453;28;20066;-59
2023/12/14 02:48:41;;;;;;;3.53;1.10;;;;;;;7.88;100.00;100834.75;5112854;28;20047;-61
2023/12/14 02:51:12;;;;;;;3.83;1.05;;;;;;;7.97;100.00;100835.75;5074106;28;20415;-60
2023/12/14 02:53:40;;;;;;;3.45;0.95;;;;;;;7.93;100.00;100837.47;5074223;28;20048;-60
2023/12/14 02:56:09;;;;;;;6.53;1.10;;;;;;;7.68;100.00;100849.53;5091768;28;20079;-59
2023/12/14 02:58:36;;;;;;;5.43;1.05;;;;;;;7.81;100.00;100856.25;5104954;28;20058;-60
2023/12/14 03:01:04;;;;;;;4.72;1.23;;;;;;;7.77;100.00;100847.78;5076122;28;20667;-61
2023/12/14 03:03:31;;;;;;;3.97;1.05;;;;;;;7.70;100.00;100871.16;5091412;28;20495;-61
2023/12/14 03:05:59;;;;;;;4.95;1.15;;;;;;;7.77;100.00;100846.97;5074592;28;20672;-61
2023/12/14 03:08:26;;;;;;;2.83;0.90;;;;;;;7.87;100.00;100861.38;5090543;28;20043;-60
2023/12/14 03:10:54;;;;;;;9.50;1.70;;;;;;;7.97;100.00;100868.66;5088669;28;20044;-62
2023/12/14 03:13:21;;;;;;;4.65;1.05;;;;;;;8.04;100.00;100873.81;5075152;28;20059;-61
2023/12/14 03:15:49;;;;;;;2.80;0.90;;;;;;;7.99;100.00;100870.00;5093339;28;20082;-60
2023/12/14 03:18:16;;;;;;;2.65;0.90;;;;;;;7.94;100.00;100885.69;5112623;28;20051;-62
2023/12/14 03:20:44;;;;;;;2.88;0.80;;;;;;;7.84;100.00;100888.56;5077069;28;20047;-61
2023/12/14 03:23:11;;;;;;;3.65;1.10;;;;;;;7.78;100.00;100887.78;5083315;28;20059;-62
2023/12/14 03:25:38;;;;;;;2.05;0.90;;;;;;;7.79;100.00;100892.16;5078951;28;20044;-61
2023/12/14 03:28:06;;;;;;;2.30;0.85;;;;;;;7.80;100.00;100906.69;5113899;28;20404;-59
2023/12/14 03:30:33;;;;;;;3.55;1.10;;;;;;;7.81;100.00;100911.88;5114228;28;20121;-59
2023/12/14 03:33:00;;;;;;;2.53;0.98;;;;;;;7.72;100.00;100905.41;5116093;28;20040;-61
2023/12/14 03:35:28;;;;;;;3.17;0.85;;;;;;;7.85;100.00;100917.59;5101443;28;20180;-61
2023/12/14 03:37:55;;;;;;;3.28;1.10;;;;;;;7.78;100.00;100914.38;5108258;28;20043;-60
2023/12/14 03:40:22;;;;;;;5.43;1.55;;;;;;;8.05;100.00;100919.31;5097580;28;20036;-60
2023/12/14 03:42:49;;;;;;;2.65;1.00;;;;;;;7.96;100.00;100924.63;5097505;28;20071;-61
2023/12/14 03:45:17;;;;;;;5.65;1.42;;;;;;;7.71;100.00;100933.94;5097507;28;20047;-60
2023/12/14 03:47:44;;;;;;;5.47;1.27;;;;;;;7.81;100.00;100938.50;5113287;28;20052;-61
2023/12/14 03:50:12;;;;;;;3.40;1.05;;;;;;;8.06;100.00;100940.97;5079233;28;20059;-61
2023/12/14 03:52:40;;;;;;;2.20;1.13;;;;;;;7.95;100.00;100943.00;5095967;28;20051;-61
2023/12/14 03:55:08;;;;;;;5.72;1.20;;;;;;;7.79;100.00;100947.00;5079387;28;20055;-60
2023/12/14 03:57:36;;;;;;;4.95;1.40;;;;;;;7.80;100.00;100956.88;5079814;28;20410;-61
2023/12/14 04:16:36;;;;;;;5.05;1.98;;;;;;;7.82;100.00;100992.22;5108861;28;20063;-61
2023/12/14 04:19:09;;;;;;;7.20;2.75;;;;;;;7.86;100.00;100991.34;5059557;28;20063;-59
2023/12/14 04:21:36;;;;;;;5.97;2.20;;;;;;;7.87;100.00;100986.69;5077520;28;20491;-61
2023/12/14 04:24:04;;;;;;;5.90;2.58;;;;;;;8.01;100.00;100998.63;5079289;28;20060;-61
2023/12/14 04:26:31;;;;;;;12.88;2.65;;;;;;;7.91;100.00;101004.22;5081459;28;20051;-59
2023/12/14 04:28:59;;;;;;;8.55;2.80;;;;;;;7.93;100.00;101022.00;5113137;28;20058;-64
2023/12/14 04:31:26;;;;;;;11.45;3.10;;;;;;;8.14;100.00;101022.66;5113867;28;20036;-60
2023/12/14 04:33:53;;;;;;;9.90;2.90;;;;;;;7.96;100.00;101028.84;5095448;28;20055;-59
2023/12/14 04:36:21;;;;;;;9.27;2.88;;;;;;;7.89;100.00;101034.69;5068919;28;20067;-60
2023/12/14 04:38:48;;;;;;;10.50;3.20;;;;;;;7.91;100.00;101037.94;5093471;28;20059;-59
2023/12/14 04:41:15;;;;;;;11.52;2.95;;;;;;;7.88;100.00;101045.91;5094256;28;20070;-58
2023/12/14 04:43:43;;;;;;;9.20;2.97;;;;;;;8.10;100.00;101054.50;5094166;28;20522;-59
2023/12/14 04:46:10;;;;;;;14.52;4.13;;;;;;;7.82;100.00;101058.03;5093423;28;20048;-59
2023/12/14 04:48:37;;;;;;;13.63;3.08;;;;;;;7.73;100.00;101067.97;5111532;28;20051;-58
2023/12/14 04:51:04;;;;;;;14.98;3.53;;;;;;;7.97;100.00;101074.38;5075747;28;20683;-59
2023/12/14 04:53:32;;;;;;;14.35;3.38;;;;;;;7.88;100.00;101074.16;5101751;28;20047;-59
2023/12/14 04:55:59;;;;;;;17.13;3.83;;;;;;;7.84;100.00;101086.84;5058012;28;20056;-59
2023/12/14 04:58:26;;;;;;;14.48;3.03;;;;;;;8.17;100.00;101096.16;5093707;28;20055;-59
2023/12/14 05:00:53;;;;;;;10.43;3.38;;;;;;;8.22;100.00;101090.59;5107957;28;20051;-60
2023/12/14 05:03:21;;;;;;;11.40;3.13;;;;;;;8.20;100.00;101095.56;5079204;28;20048;-60
2023/12/14 05:05:48;;;;;;;16.00;3.38;;;;;;;8.21;100.00;101099.94;5113579;28;20047;-60
2023/12/14 05:08:16;;;;;;;20.05;3.78;;;;;;;8.17;100.00;101104.38;5099025;28;20051;-59
2023/12/14 05:10:43;;;;;;;15.15;3.60;;;;;;;8.22;100.00;101115.31;5092063;28;20693;-59
2023/12/14 05:13:10;;;;;;;25.38;4.18;;;;;;;8.17;100.00;101117.28;5094851;28;20549;-58
2023/12/14 05:15:38;;;;;;;21.92;4.40;;;;;;;8.07;100.00;101117.38;5113806;28;20073;-61
2023/12/14 05:18:05;;;;;;;18.35;3.42;;;;;;;8.29;100.00;101120.47;5078811;28;20406;-60
2023/12/14 05:20:33;;;;;;;17.55;3.47;;;;;;;8.10;100.00;101131.31;5113877;28;20569;-61
2023/12/14 05:23:00;;;;;;;18.88;4.15;;;;;;;8.10;100.00;101131.31;5090703;28;20048;-59
2023/12/14 05:25:27;;;;;;;17.70;3.45;;;;;;;7.94;100.00;101154.47;5074503;28;20044;-58
2023/12/14 05:27:54;;;;;;;18.50;3.55;;;;;;;7.83;100.00;101145.50;5112680;28;20048;-60
2023/12/14 05:30:21;;;;;;;15.85;3.67;;;;;;;7.90;100.00;101151.50;5093108;28;20055;-60
2023/12/14 05:32:49;;;;;;;19.27;4.38;;;;;;;7.82;100.00;101163.09;5093159;28;20055;-60
2023/12/14 05:35:16;;;;;;;17.10;4.35;;;;;;;7.82;100.00;101151.28;5090776;28;20055;-60
2023/12/14 05:37:43;;;;;;;15.45;4.13;;;;;;;8.12;100.00;101159.31;5111751;28;20054;-61
2023/12/14 05:40:11;;;;;;;15.95;4.10;;;;;;;8.00;100.00;101167.06;5112311;28;20056;-58
2023/12/14 05:42:39;;;;;;;18.35;3.97;;;;;;;7.97;100.00;101160.22;5074046;28;20043;-57
2023/12/14 05:45:06;;;;;;;17.73;4.45;;;;;;;8.08;100.00;101163.72;5079873;28;20044;-59
2023/12/14 05:47:38;;;;;;;17.40;3.95;;;;;;;8.02;100.00;101170.31;5092445;28;20406;-59
2023/12/14 05:50:06;;;;;;;10.73;3.85;;;;;;;7.99;100.00;101169.00;5092930;28;20426;-60
2023/12/14 05:52:33;;;;;;;16.52;3.67;;;;;;;7.99;100.00;101173.66;5093526;28;20044;-60
2023/12/14 05:55:01;;;;;;;23.42;5.40;;;;;;;8.07;100.00;101172.22;5109841;28;20087;-59
2023/12/14 05:57:31;;;;;;;18.10;4.40;;;;;;;8.14;100.00;101186.44;5092931;28;20054;-60
2023/12/14 05:59:58;;;;;;;16.60;3.80;;;;;;;7.94;100.00;101190.16;5075846;28;20062;-61
2023/12/14 06:02:25;;;;;;;16.55;4.18;;;;;;;8.08;100.00;101188.41;5094180;28;20040;-59
2023/12/14 06:04:53;;;;;;;20.38;4.25;;;;;;;8.15;100.00;101193.56;5090613;28;20043;-60
2023/12/14 06:07:20;;;;;;;19.30;4.70;;;;;;;8.02;100.00;101197.75;5099380;28;20704;-59
2023/12/14 06:09:47;;;;;;;17.20;3.70;;;;;;;8.09;100.00;101205.69;5078337;28;20048;-60
2023/12/14 06:12:14;;;;;;;17.02;3.50;;;;;;;8.09;100.00;101201.00;5099972;28;20044;-61
2023/12/14 06:14:42;;;;;;;16.05;3.67;;;;;;;8.40;100.00;101216.19;5076131;28;20674;-61
2023/12/14 06:17:09;;;;;;;16.45;4.68;;;;;;;8.08;100.00;101221.31;5092831;28;20714;-60
2023/12/14 06:19:36;;;;;;;14.95;3.63;;;;;;;8.24;100.00;101231.13;5107414;28;20070;-60
2023/12/14 06:22:03;;;;;;;16.02;4.10;;;;;;;8.18;100.00;101239.63;5094915;28;20058;-61
2023/12/14 06:24:30;;;;;;;15.50;3.80;;;;;;;7.96;100.00;101256.50;5112177;28;20490;-60
2023/12/14 06:26:58;;;;;;;15.98;4.60;;;;;;;7.83;100.00;101254.38;5109493;28;20048;-62
2023/12/14 06:29:25;;;;;;;17.92;4.82;;;;;;;7.95;100.00;101263.09;5094336;28;20047;-61
2023/12/14 06:31:52;;;;;;;15.82;4.78;;;;;;;7.85;100.00;101268.63;5111060;28;20066;-60
2023/12/14 06:34:20;;;;;;;21.50;4.53;;;;;;;7.93;100.00;101268.84;5112968;28;20051;-62
2023/12/14 06:36:47;;;;;;;15.10;3.47;;;;;;;7.95;100.00;101279.53;5110282;28;20055;-61
2023/12/14 06:39:14;;;;;;;23.48;4.28;;;;;;;7.97;100.00;101282.81;5077081;28;20051;-61
2023/12/14 06:41:45;;;;;;;15.73;4.35;;;;;;;8.11;100.00;101292.09;5091221;28;20479;-59
2023/12/14 06:44:13;;;;;;;15.27;4.25;;;;;;;8.33;100.00;101306.28;5092397;28;20055;-62
2023/12/14 06:46:40;;;;;;;19.55;4.05;;;;;;;8.06;100.00;101305.00;5066722;28;20417;-59
2023/12/14 06:49:07;;;;;;;13.18;3.20;;;;;;;8.24;100.00;101318.94;5105437;28;20052;-62
2023/12/14 06:51:35;;;;;;;12.70;3.45;;;;;;;8.22;100.00;101318.38;5093963;28;20040;-58
2023/12/14 06:54:07;;;;;;;9.57;3.08;;;;;;;8.27;100.00;101325.78;5100067;28;20050;-62
2023/12/14 06:56:44;;;;;;;17.95;3.70;;;;;;;8.16;100.00;101330.47;5075235;28;20044;-60
2023/12/14 06:59:12;;;;;;;15.10;2.97;;;;;;;7.97;100.00;101349.50;5111395;28;20054;-60
2023/12/14 07:01:39;;;;;;;16.65;2.97;;;;;;;8.02;100.00;101337.66;5091964;28;20072;-60
2023/12/14 07:04:07;;;;;;;12.88;2.58;;;;;;;8.13;100.00;101344.75;5102842;28;20051;-59
2023/12/14 07:06:35;;;;;;;11.10;2.70;;;;;;;7.99;100.00;101340.97;5113476;28;20082;-60
2023/12/14 07:09:02;;;;;;;12.95;2.85;;;;;;;8.06;100.00;101359.88;5113845;28;20047;-59
2023/12/14 07:11:30;;;;;;;8.52;2.40;;;;;;;7.82;100.00;101359.69;5095968;28;20406;-60
2023/12/14 07:13:57;;;;;;;14.52;3.03;;;;;;;8.05;100.00;101367.31;5114315;27;20043;-59
2023/12/14 07:16:24;;;;;;;15.57;3.22;;;;;;;8.00;100.00;101365.38;5127745;27;20051;-60
2023/12/14 07:18:51;;;;;;;11.82;3.47;;;;;;;8.15;100.00;101369.16;5111129;28;20059;-61
2023/12/14 07:21:19;;;;;;;8.85;2.70;;;;;;;8.08;100.00;101372.22;5114540;28;20051;-59
2023/12/14 07:23:46;;;;;;;9.60;2.20;;;;;;;8.11;100.00;101368.91;5096441;28;20455;-60
2023/12/14 07:26:13;;;;;;;9.70;2.45;;;;;;;8.23;100.00;101379.56;5106657;28;20048;-61
2023/12/14 07:28:40;;;;;;;9.43;2.58;;;;;;;8.22;100.00;101384.22;5122804;27;20051;-61
2023/12/14 07:31:08;;;;;;;9.18;2.30;;;;;;;8.12;100.00;101381.53;5112715;28;20051;-61
2023/12/14 07:33:35;;;;;;;18.73;3.03;;;;;;;8.54;100.00;101403.84;5090073;28;20039;-60
2023/12/14 07:36:05;;;;;;;8.82;2.58;;;;;;;8.41;100.00;101401.72;5108674;27;20056;-63
2023/12/14 07:38:32;;;;;;;10.57;2.38;;;;;;;8.48;100.00;101412.41;5096137;28;20418;-60
2023/12/14 07:40:59;;;;;;;11.80;2.33;;;;;;;8.69;100.00;101424.91;5112269;28;20050;-60
2023/12/14 07:43:27;;;;;;;7.65;2.60;;;;;;;8.65;100.00;101423.81;5095726;28;20052;-58
2023/12/14 07:45:55;;;;;;;8.77;2.38;;;;;;;8.91;100.00;101430.81;5092165;28;20044;-59
2023/12/14 07:48:26;;;;;;;6.75;2.15;;;;;;;8.46;100.00;101434.66;5094447;28;20058;-62
2023/12/14 07:50:54;;;;;;;13.10;3.10;;;;;;;8.57;100.00;101444.47;5056032;28;20056;-60
2023/12/14 07:53:21;;;;;;;14.32;2.60;;;;;;;8.67;100.00;101441.69;5108960;27;20063;-60
2023/12/14 07:55:48;;;;;;;8.88;2.50;;;;;;;8.55;100.00;101460.41;5088643;28;20046;-61
2023/12/14 07:58:16;;;;;;;9.48;2.58;;;;;;;8.46;100.00;101453.88;5109860;28;20051;-64
2023/12/14 08:00:43;;;;;;;10.85;2.33;;;;;;;8.59;100.00;101464.25;5066530;28;20043;-60
2023/12/14 08:03:10;;;;;;;5.88;2.20;;;;;;;8.75;100.00;101463.03;5094012;28;20035;-62
2023/12/14 08:05:37;;;;;;;10.15;2.58;;;;;;;8.87;100.00;101466.25;5086597;28;20059;-61
2023/12/14 08:08:05;;;;;;;8.40;2.92;;;;;;;8.53;100.00;101481.00;5074515;28;20040;-58
2023/12/14 08:10:33;;;;;;;10.23;2.83;;;;;;;8.59;100.00;101468.91;5093192;28;20047;-59
2023/12/14 08:13:00;;;;;;;9.00;2.78;;;;;;;8.72;100.00;101491.09;5111646;28;20038;-59
2023/12/14 08:15:27;;;;;;;9.23;2.92;;;;;;;8.80;100.00;101490.47;5092859;28;20498;-58
2023/12/14 08:17:54;;;;;;;8.63;2.90;;;;;;;8.90;100.00;101495.13;5091070;27;20537;-60
2023/12/14 08:20:22;;;;;;;16.95;3.50;;;;;;;8.13;100.00;101503.06;5112035;27;20050;-57
2023/12/14 08:22:49;;;;;;;9.65;3.80;;;;;;;8.15;100.00;101506.34;5100477;28;20052;-56
2023/12/14 08:25:17;;;;;;;15.57;4.30;;;;;;;8.15;100.00;101506.34;5104494;28;20078;-57
2023/12/14 08:27:44;;;;;;;11.13;4.40;;;;;;;8.08;100.00;101511.31;5117609;27;20036;-54
2023/12/14 08:30:12;;;;;;;12.63;3.92;;;;;;;7.72;100.00;101532.50;5105970;27;20070;-56
2023/12/14 08:32:40;;;;;;;13.57;4.25;;;;;;;7.80;100.00;101524.53;5102059;28;20036;-55
2023/12/14 08:35:08;;;;;;;9.65;4.10;;;;;;;7.73;100.00;101531.38;5103968;27;20094;-58
2023/12/14 08:37:36;;;;;;;12.80;3.88;;;;;;;7.75;100.00;101535.50;5119713;27;20055;-57
2023/12/14 08:40:05;;;;;;;15.27;4.25;;;;;;;8.00;100.00;101534.66;5098853;27;20052;-57
2023/12/14 08:42:33;;;;;;;9.95;3.80;;;;;;;8.15;100.00;101556.59;5094772;27;20422;-58
2023/12/14 08:45:01;;;;;;;11.38;3.95;;;;;;;7.95;100.00;101560.16;5098640;28;20048;-56
2023/12/14 08:47:28;;;;;;;13.65;3.97;;;;;;;8.09;100.00;101554.13;5104717;28;20101;-57
2023/12/14 08:49:56;;;;;;;12.27;4.00;;;;;;;8.03;100.00;101561.53;5105499;28;20525;-53
2023/12/14 08:52:23;;;;;;;11.45;3.70;;;;;;;8.06;100.00;101563.72;5104739;28;20691;-58
2023/12/14 08:54:51;;;;;;;12.70;4.20;;;;;;;7.83;100.00;101581.56;5101713;28;20048;-57
2023/12/14 08:57:18;;;;;;;14.98;4.10;;;;;;;7.76;100.00;101561.81;5092084;28;20513;-57
2023/12/14 08:59:45;;;;;;;16.45;4.55;;;;;;;8.08;100.00;101566.19;5099374;28;20048;-54
2023/12/14 09:02:13;;;;;;;10.65;3.67;;;;;;;7.94;100.00;101571.41;5099146;28;20052;-59
2023/12/14 09:04:40;;;;;;;17.38;3.75;;;;;;;7.92;100.00;101577.19;5069057;28;20133;-56
2023/12/14 09:07:07;;;;;;;11.80;3.90;;;;;;;7.74;100.00;101579.66;5092200;28;20066;-58
2023/12/14 09:09:34;;;;;;;14.63;3.85;;;;;;;7.86;100.00;101597.47;5103995;28;20065;-58
2023/12/14 09:12:02;;;;;;;17.77;3.75;;;;;;;7.57;100.00;101599.09;5092616;28;20078;-57
2023/12/14 09:14:30;;;;;;;11.23;3.63;;;;;;;7.61;100.00;101613.09;5086108;28;20071;-55
2023/12/14 09:16:57;;;;;;;15.63;3.83;;;;;;;7.62;100.00;101614.72;5104736;28;20063;-61
2023/12/14 09:19:25;;;;;;;14.80;4.45;;;;;;;7.63;100.00;101614.47;5110765;28;20066;-56
2023/12/14 09:21:53;;;;;;;11.90;3.25;;;;;;;7.76;100.00;101607.59;5089610;28;20108;-54
2023/12/14 09:24:20;;;;;;;11.68;4.30;;;;;;;7.84;100.00;101620.78;5110844;28;20044;-58
2023/12/14 09:26:48;;;;;;;11.35;3.55;;;;;;;7.91;100.00;101618.59;5087041;28;20557;-57
2023/12/14 09:29:16;;;;;;;9.15;3.70;;;;;;;8.23;100.00;101613.63;5104763;28;20036;-58
2023/12/14 09:31:44;;;;;;;12.18;3.38;;;;;;;8.27;99.62;101620.25;5087819;28;20374;-58
2023/12/14 09:34:11;;;;;;;12.25;3.90;;;;;;;7.89;100.00;101620.78;5074271;28;20040;-57
2023/12/14 09:36:39;;;;;;;12.65;3.78;;;;;;;8.08;100.00;101623.81;5111820;28;20050;-59
2023/12/14 09:39:10;;;;;;;11.00;3.80;;;;;;;8.31;100.00;101626.84;5110724;28;20360;-56
2023/12/14 09:41:38;;;;;;;12.45;3.97;;;;;;;8.22;99.82;101635.88;5114650;27;20056;-58
2023/12/14 09:44:09;;;;;;;10.57;3.88;;;;;;;8.40;99.44;101640.84;5094080;28;20070;-58
2023/12/14 09:46:38;;;;;;;10.88;4.07;;;;;;;8.01;100.00;101651.53;5104272;28;20031;-55
2023/12/14 09:49:05;;;;;;;11.60;3.75;;;;;;;8.25;100.00;101657.31;5087959;28;20048;-57
2023/12/14 09:51:35;;;;;;;10.45;3.63;;;;;;;8.00;98.38;101649.88;5110966;27;20047;-59
2023/12/14 09:54:03;;;;;;;12.10;3.25;;;;;;;7.97;98.59;101664.13;5115602;27;20061;-58
2023/12/14 09:56:30;;;;;;;10.00;3.20;;;;;;;7.84;97.64;101671.00;5102768;28;20052;-57
2023/12/14 09:59:00;;;;;;;16.17;3.70;;;;;;;7.79;99.14;101672.91;5121675;27;20035;-57
2023/12/14 10:01:27;;;;;;;11.95;3.40;;;;;;;7.88;97.74;101682.22;5108154;27;20047;-57
2023/12/14 10:04:08;;;;;;;11.05;3.55;;;;;;;7.84;96.82;101670.16;5098251;28;20043;-58
2023/12/14 10:06:36;;;;;;;11.10;3.42;;;;;;;7.71;98.42;101674.25;5115543;27;20420;-59
2023/12/14 10:09:06;;;;;;;10.45;3.10;;;;;;;7.76;97.70;101687.97;5105183;28;20059;-56
2023/12/14 10:11:33;;;;;;;16.55;3.38;;;;;;;7.88;98.18;101679.47;5090613;28;20051;-60
2023/12/14 10:14:01;;;;;;;20.92;4.93;;;;;;;8.22;97.76;101683.34;5091947;28;20051;-57
2023/12/14 10:16:30;;;;;;;11.70;3.58;;;;;;;8.12;95.74;101696.25;5091927;28;20064;-58
2023/12/14 10:18:58;;;;;;;12.43;3.42;;;;;;;7.93;95.40;101693.22;5107553;28;20052;-60
2023/12/14 10:21:27;;;;;;;17.17;3.97;;;;;;;7.97;96.48;101697.88;5102620;28;20697;-55
2023/12/14 10:23:57;;;;;;;13.80;3.45;;;;;;;8.24;95.42;101705.91;5109965;28;20450;-58
2023/12/14 10:26:25;;;;;;;14.82;3.85;;;;;;;8.21;94.48;101711.09;5086753;28;20157;-58
2023/12/14 10:28:55;;;;;;;13.35;3.92;;;;;;;8.50;94.22;101714.94;5097014;28;20044;-56
2023/12/14 10:31:23;;;;;;;9.38;3.10;;;;;;;8.34;92.78;101719.63;5107778;28;20048;-57
2023/12/14 10:33:51;;;;;;;14.13;3.63;;;;;;;8.55;93.21;101729.50;5096107;28;20031;-52
2023/12/14 10:36:23;;;;;;;11.13;3.55;;;;;;;8.52;93.00;101735.56;5100516;27;20051;-58
2023/12/14 10:38:57;;;;;;;16.55;3.42;;;;;;;8.55;91.28;101739.66;5118653;27;20070;-58
2023/12/14 10:41:24;;;;;;;10.15;2.85;;;;;;;8.65;90.85;101732.25;5085310;28;20056;-60
2023/12/14 10:43:56;;;;;;;12.82;3.25;;;;;;;8.49;90.36;101740.78;5099932;28;20043;-55
2023/12/14 10:46:47;;;;;;;14.43;2.85;;;;;;;8.49;91.15;101747.06;5072280;28;20063;-55
2023/12/14 10:49:15;;;;;;;12.02;2.55;;;;;;;8.40;89.40;101747.91;5082442;28;20071;-53
2023/12/14 10:51:42;;;;;;;7.65;2.35;;;;;;;8.22;91.21;101751.97;5105441;27;20051;-56
2023/12/14 10:54:14;;;;;;;14.55;2.50;;;;;;;8.09;91.55;101757.16;5111827;27;20039;-58
2023/12/14 10:56:42;;;;;;;12.10;3.35;;;;;;;8.35;91.06;101751.44;5100238;27;20039;-55
2023/12/14 10:59:09;;;;;;;14.38;3.13;;;;;;;8.70;89.55;101756.16;5102716;28;20043;-57
2023/12/14 11:01:39;;;;;;;14.13;3.10;;;;;;;8.41;89.02;101769.59;5098958;27;20042;-53
2023/12/14 11:04:12;;;;;;;12.82;3.25;;;;;;;8.42;87.58;101776.72;5098663;28;20123;-56
2023/12/14 11:06:40;;;;;;;11.27;3.55;;;;;;;8.20;89.59;101767.06;5114802;28;20050;-57
2023/12/14 11:09:10;;;;;;;14.73;3.30;;;;;;;8.71;90.08;101777.00;5115893;28;20048;-59
2023/12/14 11:11:57;;;;;;;10.02;3.60;;;;;;;8.55;88.20;101773.44;5091930;28;20056;-56
2023/12/14 11:14:25;;;;;;;13.68;3.83;;;;;;;8.70;88.01;101781.66;5076400;27;20058;-57
2023/12/14 11:17:05;;;;;;;12.90;2.47;;;;;;;8.70;86.42;101775.38;5123386;27;20054;-57
2023/12/14 11:19:33;;;;;;;16.27;4.35;;;;;;;8.73;86.68;101783.88;5118572;27;20049;-58
2023/12/14 11:22:23;;;;;;;23.80;6.22;;;;;;;8.61;85.35;101786.06;5100164;28;20121;-58
2023/12/14 11:24:51;;;;;;;;;;;;;;;8.54;86.63;101777.28;5110097;28;20047;-56
2023/12/14 11:27:20;;;;;;;14.68;5.53;;;;;;;8.52;85.65;101781.41;5094431;28;19926;-58
2023/12/14 11:29:48;;;;;;;15.00;4.13;;;;;;;8.76;85.15;101788.00;5090729;28;20052;-59
2023/12/14 11:32:17;;;;;;;12.40;5.13;;;;;;;8.47;84.00;101792.38;5100035;27;20058;-60
2023/12/14 11:34:46;;;;;;;13.85;4.57;;;;;;;8.44;82.31;101790.19;5114865;27;20032;-56
2023/12/14 11:37:14;;;;;;;16.88;6.10;;;;;;;8.34;82.91;101795.66;5113920;27;20051;-56
2023/12/14 11:39:42;;;;;;;13.07;4.53;;;;;;;8.46;82.85;101799.78;5094363;28;20071;-58
2023/12/14 11:42:10;;;;;;;13.32;6.13;;;;;;;8.64;82.39;101792.94;5111402;27;20415;-54